Time;durP1;ratioP1;P1;durP2;ratioP2;P2;SDS_P1;SDS_P2;PMS_P1;PMS_P2;Temp;Humidity;BMP_temperature;BMP_pressure;BME280_temperature;BME280_humidity;BME280_pressure;Samples;Min_cycle;Max_cycle;Signal;HPM_P1;HPM_P2
2022/12/02 00:00:25;;;;;;;0.17;0.17;;;;;;;7.60;56.04;95447.13;4942999;29;20578;-66
2022/12/02 00:02:57;;;;;;;0.30;0.30;;;;;;;7.50;56.19;95444.28;4934216;28;20363;-65
2022/12/02 00:05:29;;;;;;;3.30;2.38;;;;;;;7.43;56.17;95439.16;4932009;29;20205;-65
2022/12/02 00:08:12;;;;;;;0.00;0.00;;;;;;;7.71;55.29;95452.38;4948890;28;20211;-66
2022/12/02 00:10:38;;;;;;;0.25;0.15;;;;;;;7.44;56.27;95447.78;4939989;28;20220;-63
2022/12/02 00:13:28;;;;;;;0.57;0.57;;;;;;;7.43;55.36;95448.78;4949299;28;20743;-64
2022/12/02 00:16:02;;;;;;;0.47;0.47;;;;;;;7.45;55.87;95451.94;4949830;28;20212;-65
2022/12/02 00:18:30;;;;;;;0.20;0.20;;;;;;;7.56;55.34;95444.19;4937975;28;20195;-64
2022/12/02 00:20:57;;;;;;;0.00;0.00;;;;;;;7.50;55.79;95444.28;4950797;28;20287;-67
2022/12/02 00:23:23;;;;;;;0.20;0.20;;;;;;;7.61;55.48;95441.69;4937118;28;20560;-66
2022/12/02 00:25:52;;;;;;;0.00;0.00;;;;;;;7.72;54.75;95450.59;4954407;28;20223;-67
2022/12/02 00:28:20;;;;;;;0.65;0.65;;;;;;;7.59;55.32;95443.72;4954242;28;20200;-67
2022/12/02 00:30:46;;;;;;;0.00;0.00;;;;;;;7.45;55.51;95446.75;4945134;28;20276;-68
2022/12/02 00:33:14;;;;;;;0.77;0.77;;;;;;;7.40;55.32;95451.84;4935237;29;20565;-68
2022/12/02 00:35:42;;;;;;;0.20;0.20;;;;;;;7.35;55.65;95441.28;4941549;29;20291;-65
2022/12/02 00:38:09;;;;;;;0.65;0.65;;;;;;;7.36;55.66;95442.84;4940758;28;20224;-68
2022/12/02 00:40:36;;;;;;;0.00;0.00;;;;;;;7.35;56.32;95441.28;4939399;29;20195;-66
2022/12/02 00:48:35;;;;;;;0.00;0.00;;;;;;;7.19;56.02;95433.06;4940283;29;20240;-65
2022/12/02 00:51:02;;;;;;;0.00;0.00;;;;;;;7.09;56.41;95438.03;4946265;28;20280;-65
2022/12/02 00:53:31;;;;;;;0.05;0.05;;;;;;;7.05;56.39;95429.03;4943272;29;20311;-66
2022/12/02 00:55:58;;;;;;;0.00;0.00;;;;;;;7.21;56.49;95440.66;4952333;28;20284;-68
2022/12/02 00:58:25;;;;;;;0.47;0.47;;;;;;;7.16;55.92;95440.53;4953676;28;20207;-69
2022/12/02 01:00:52;;;;;;;0.13;0.13;;;;;;;7.16;56.63;95432.72;4951020;29;20197;-64
2022/12/02 01:03:18;;;;;;;0.00;0.00;;;;;;;7.10;56.75;95433.59;4947194;28;20192;-66
2022/12/02 01:05:46;;;;;;;0.28;0.28;;;;;;;7.01;57.16;95430.50;4947690;29;20200;-67
2022/12/02 01:08:13;;;;;;;0.00;0.00;;;;;;;7.11;56.70;95430.78;4953816;28;20295;-67
2022/12/02 01:10:40;;;;;;;1.95;1.23;;;;;;;7.37;56.21;95428.81;4953560;28;20212;-69
2022/12/02 01:13:07;;;;;;;0.85;0.75;;;;;;;7.44;55.83;95429.53;4953487;28;20251;-66
2022/12/02 01:15:34;;;;;;;0.20;0.20;;;;;;;7.50;55.56;95429.41;4952296;28;20225;-68
2022/12/02 01:18:01;;;;;;;0.05;0.05;;;;;;;7.46;55.52;95428.28;4953398;28;20207;-65
2022/12/02 01:20:28;;;;;;;0.00;0.00;;;;;;;7.41;55.63;95419.53;4949115;28;20320;-67
2022/12/02 01:22:54;;;;;;;0.10;0.10;;;;;;;7.63;55.76;95418.78;4934388;29;20188;-68
2022/12/02 01:25:21;;;;;;;0.20;0.20;;;;;;;7.61;55.62;95420.06;4953375;28;20192;-67
2022/12/02 01:27:48;;;;;;;0.00;0.00;;;;;;;7.58;55.14;95420.47;4953417;28;20211;-66
2022/12/02 01:30:15;;;;;;;0.00;0.00;;;;;;;7.53;55.44;95408.13;4952956;28;20251;-68
2022/12/02 01:32:42;;;;;;;1.08;0.52;;;;;;;7.64;55.36;95414.38;4951251;28;20248;-66
2022/12/02 01:35:08;;;;;;;1.63;1.35;;;;;;;7.58;55.34;95420.47;4948539;28;20197;-68
2022/12/02 01:37:36;;;;;;;0.00;0.00;;;;;;;7.26;55.92;95411.34;4942317;29;20207;-64
2022/12/02 01:40:07;;;;;;;0.65;0.65;;;;;;;7.40;55.15;95417.94;4951405;28;20227;-67
2022/12/02 01:42:34;;;;;;;0.30;0.30;;;;;;;7.31;55.24;95408.84;4937108;28;20297;-66
2022/12/02 01:45:02;;;;;;;1.17;0.45;;;;;;;7.25;55.41;95430.56;4933636;28;20547;-68
2022/12/02 01:47:30;;;;;;;0.17;0.17;;;;;;;7.40;55.47;95415.34;4939982;29;20814;-66
2022/12/02 01:49:57;;;;;;;0.08;0.08;;;;;;;7.11;55.70;95420.34;4952588;28;20291;-66
2022/12/02 01:52:24;;;;;;;0.00;0.00;;;;;;;6.65;56.64;95420.13;4950038;28;20741;-67
2022/12/02 01:54:51;;;;;;;0.00;0.00;;;;;;;6.85;56.23;95427.69;4933815;29;20203;-66
2022/12/02 01:57:25;;;;;;;0.00;0.00;;;;;;;7.09;55.67;95422.38;4947464;29;20211;-69
2022/12/02 01:59:52;;;;;;;0.00;0.00;;;;;;;7.22;54.93;95416.97;4948455;28;20197;-65
2022/12/02 02:02:25;;;;;;;0.13;0.13;;;;;;;7.14;55.84;95419.09;4945915;28;20307;-64
2022/12/02 02:04:56;;;;;;;0.40;0.40;;;;;;;7.26;55.57;95426.97;4952287;28;20199;-66
2022/12/02 02:07:23;;;;;;;0.00;0.00;;;;;;;6.83;55.54;95427.91;4951352;29;20290;-67
2022/12/02 02:09:50;;;;;;;0.00;0.00;;;;;;;6.87;55.97;95429.06;4934245;28;20200;-64
2022/12/02 02:12:17;;;;;;;0.00;0.00;;;;;;;7.00;55.25;95434.13;4931903;29;20220;-65
2022/12/02 02:14:45;;;;;;;0.03;0.03;;;;;;;7.16;55.29;95435.31;4948713;29;20196;-68
2022/12/02 02:17:12;;;;;;;0.10;0.10;;;;;;;7.22;55.34;95440.44;4941680;28;20220;-64
2022/12/02 02:19:39;;;;;;;0.00;0.00;;;;;;;7.14;55.91;95434.75;4948640;29;20212;-66
2022/12/02 02:22:12;;;;;;;0.00;0.00;;;;;;;7.18;56.35;95436.69;4943287;29;20267;-67
2022/12/02 02:24:39;;;;;;;0.20;0.20;;;;;;;7.19;56.44;95427.84;4934193;29;20201;-65
2022/12/02 02:27:06;;;;;;;0.03;0.03;;;;;;;7.14;57.16;95430.31;4951108;29;20279;-66
2022/12/02 02:29:33;;;;;;;0.00;0.00;;;;;;;7.38;56.61;95427.78;4939566;28;20207;-67
2022/12/02 02:32:00;;;;;;;0.50;0.50;;;;;;;7.34;56.52;95431.84;4950555;29;20231;-67
2022/12/02 02:34:27;;;;;;;0.40;0.40;;;;;;;6.83;58.05;95443.53;4950824;29;20188;-66
2022/12/02 02:36:55;;;;;;;1.08;0.98;;;;;;;7.27;56.60;95444.19;4933775;29;20201;-66
2022/12/02 02:39:22;;;;;;;0.00;0.00;;;;;;;7.37;56.65;95439.25;4931620;29;20200;-67
2022/12/02 02:41:52;;;;;;;0.43;0.40;;;;;;;7.24;57.35;95439.44;4943825;29;20204;-68
2022/12/02 02:44:19;;;;;;;0.13;0.08;;;;;;;7.21;57.82;95438.03;4941344;28;20195;-66
2022/12/02 02:46:52;;;;;;;0.15;0.13;;;;;;;7.04;57.93;95440.47;4950376;28;20262;-66
2022/12/02 02:49:19;;;;;;;0.52;0.45;;;;;;;6.98;57.46;95445.78;4944823;28;20260;-65
2022/12/02 02:51:46;;;;;;;0.00;0.00;;;;;;;7.14;57.16;95438.16;4941003;28;20420;-67
2022/12/02 02:54:14;;;;;;;0.00;0.00;;;;;;;7.03;57.20;95449.31;4933462;29;20212;-66
2022/12/02 02:56:41;;;;;;;0.05;0.05;;;;;;;6.90;58.02;95457.28;4951899;29;20231;-65
2022/12/02 02:59:15;;;;;;;0.00;0.00;;;;;;;7.04;58.44;95456.09;4936137;28;20197;-66
2022/12/02 03:01:46;;;;;;;0.00;0.00;;;;;;;7.19;57.53;95448.69;4939436;28;20196;-64
2022/12/02 03:04:17;;;;;;;0.85;0.75;;;;;;;7.05;57.75;95455.09;4947361;28;20215;-66
2022/12/02 03:06:46;;;;;;;5.57;0.82;;;;;;;6.92;57.96;95457.06;4938915;29;20663;-65
2022/12/02 03:09:16;;;;;;;0.00;0.00;;;;;;;7.16;57.50;95456.16;4951554;28;20207;-65
2022/12/02 03:11:47;;;;;;;0.43;0.17;;;;;;;6.74;58.77;95450.06;4938638;29;20215;-65
2022/12/02 03:14:15;;;;;;;0.10;0.10;;;;;;;6.98;57.89;95456.19;4951504;28;20207;-64
2022/12/02 03:16:44;;;;;;;0.10;0.08;;;;;;;7.15;57.47;95447.53;4937793;28;20200;-65
2022/12/02 03:19:11;;;;;;;0.00;0.00;;;;;;;6.94;58.05;95453.22;4951314;28;20235;-68
2022/12/02 03:21:39;;;;;;;0.32;0.32;;;;;;;6.85;57.50;95457.16;4938040;28;20192;-68
2022/12/02 03:24:06;;;;;;;0.20;0.20;;;;;;;6.81;57.60;95450.78;4941388;28;20200;-69
2022/12/02 03:26:33;;;;;;;1.35;0.80;;;;;;;6.87;58.15;95455.13;4934948;29;20228;-65
2022/12/02 03:29:03;;;;;;;0.47;0.40;;;;;;;6.68;58.84;95444.94;4951247;28;20204;-69
2022/12/02 03:31:32;;;;;;;0.00;0.00;;;;;;;6.69;58.29;95459.53;4949982;28;20733;-66
2022/12/02 03:33:59;;;;;;;0.10;0.10;;;;;;;6.45;59.27;95466.41;4932138;29;20209;-66
2022/12/02 03:36:26;;;;;;;0.52;0.52;;;;;;;6.78;58.31;95472.06;4932626;29;20197;-66
2022/12/02 03:38:54;;;;;;;0.00;0.00;;;;;;;6.43;59.07;95478.03;4938174;28;20633;-67
2022/12/02 03:41:24;;;;;;;0.00;0.00;;;;;;;6.70;58.58;95479.34;4951407;28;20247;-64
2022/12/02 03:43:51;;;;;;;0.10;0.10;;;;;;;6.53;58.88;95479.13;4937350;28;20196;-64
2022/12/02 03:46:18;;;;;;;0.00;0.00;;;;;;;6.79;58.27;95478.84;4940817;28;20688;-66
2022/12/02 03:48:46;;;;;;;0.15;0.15;;;;;;;6.92;57.87;95476.09;4945354;29;20208;-63
2022/12/02 03:51:14;;;;;;;0.70;0.70;;;;;;;6.58;58.16;95474.09;4935773;29;20287;-67
2022/12/02 03:53:42;;;;;;;3.65;0.17;;;;;;;6.73;57.62;95484.91;4932072;29;20196;-68
2022/12/02 03:56:10;;;;;;;1.27;0.40;;;;;;;6.87;57.88;95486.38;4949894;28;20737;-67
2022/12/02 03:58:54;;;;;;;0.08;0.08;;;;;;;6.50;57.98;95479.56;4951046;28;20207;-68
2022/12/02 04:01:23;;;;;;;0.20;0.10;;;;;;;6.94;57.13;95481.88;4941279;28;20204;-66
2022/12/02 04:03:50;;;;;;;0.00;0.00;;;;;;;6.97;57.59;95480.66;4944046;29;20564;-67
2022/12/02 04:06:16;;;;;;;0.43;0.43;;;;;;;6.84;57.92;95486.78;4949286;28;20291;-65
2022/12/02 04:08:43;;;;;;;0.52;0.17;;;;;;;6.50;58.24;95489.97;4935762;29;20255;-68
2022/12/02 04:11:10;;;;;;;0.22;0.22;;;;;;;6.54;58.39;95501.56;4951008;28;20689;-67
2022/12/02 04:13:37;;;;;;;0.00;0.00;;;;;;;6.89;57.78;95484.34;4946695;28;20295;-69
2022/12/02 04:16:04;;;;;;;0.93;0.93;;;;;;;6.61;58.13;95491.06;4949276;29;20680;-63
2022/12/02 04:18:31;;;;;;;3.40;0.52;;;;;;;6.79;57.33;95484.06;4948276;28;20204;-67
2022/12/02 04:20:58;;;;;;;0.00;0.00;;;;;;;6.83;57.17;95487.81;4947759;29;20235;-65
2022/12/02 04:23:25;;;;;;;0.15;0.15;;;;;;;6.44;59.11;95496.03;4940847;28;20272;-67
2022/12/02 04:25:52;;;;;;;0.10;0.10;;;;;;;6.63;57.68;95497.66;4944345;28;20232;-65
2022/12/02 04:28:19;;;;;;;0.00;0.00;;;;;;;6.77;58.03;95493.13;4951188;28;20196;-68
2022/12/02 04:30:45;;;;;;;0.00;0.00;;;;;;;6.65;58.40;95490.44;4945342;28;20192;-66
2022/12/02 04:33:12;;;;;;;2.38;0.57;;;;;;;6.85;58.10;95493.63;4935051;29;20220;-67
2022/12/02 04:35:39;;;;;;;0.00;0.00;;;;;;;6.85;57.74;95487.59;4942352;29;20208;-67
2022/12/02 04:38:06;;;;;;;0.08;0.08;;;;;;;6.75;57.96;95492.53;4954507;28;20192;-64
2022/12/02 04:40:38;;;;;;;0.00;0.00;;;;;;;6.84;57.66;95491.22;4935552;29;20200;-66
2022/12/02 04:43:05;;;;;;;0.00;0.00;;;;;;;7.05;57.50;95494.19;4946740;29;20765;-66
2022/12/02 04:45:32;;;;;;;0.82;0.80;;;;;;;6.81;58.52;95492.44;4952782;28;20214;-65
2022/12/02 04:47:59;;;;;;;0.00;0.00;;;;;;;7.10;57.54;95491.72;4942233;29;20349;-64
2022/12/02 04:50:26;;;;;;;2.63;0.40;;;;;;;6.87;57.36;95496.81;4949663;29;20593;-68
2022/12/02 04:52:53;;;;;;;0.00;0.00;;;;;;;7.07;57.56;95502.59;4940249;28;20227;-66
2022/12/02 04:55:20;;;;;;;1.05;0.95;;;;;;;7.26;57.08;95502.56;4943028;28;20732;-66
2022/12/02 04:57:46;;;;;;;0.30;0.30;;;;;;;7.29;57.02;95504.72;4948004;29;20227;-67
2022/12/02 05:00:14;;;;;;;0.00;0.00;;;;;;;7.38;56.65;95498.19;4941868;29;20275;-67
2022/12/02 05:02:41;;;;;;;0.32;0.32;;;;;;;7.29;56.43;95505.53;4936201;29;20196;-66
2022/12/02 05:05:09;;;;;;;0.00;0.00;;;;;;;7.29;58.27;95505.53;4934502;29;20189;-65
2022/12/02 05:07:36;;;;;;;0.55;0.30;;;;;;;7.36;57.44;95506.22;4947719;28;20291;-65
2022/12/02 05:10:04;;;;;;;0.22;0.20;;;;;;;7.46;57.79;95506.50;4948227;28;20215;-67
2022/12/02 05:12:31;;;;;;;0.10;0.10;;;;;;;7.41;56.63;95511.56;4945750;29;20227;-64
2022/12/02 05:14:58;;;;;;;0.00;0.00;;;;;;;7.49;56.86;95505.25;4944022;28;20216;-67
2022/12/02 05:17:24;;;;;;;1.55;0.38;;;;;;;7.46;57.13;95506.50;4944518;28;20210;-68
2022/12/02 05:19:51;;;;;;;0.05;0.05;;;;;;;7.16;56.99;95506.47;4950003;28;20625;-70
2022/12/02 05:22:18;;;;;;;0.10;0.10;;;;;;;7.33;55.91;95505.88;4953589;28;20207;-66
2022/12/02 05:24:47;;;;;;;0.63;0.63;;;;;;;7.29;56.07;95505.53;4948176;28;20231;-64
2022/12/02 05:27:15;;;;;;;1.40;0.50;;;;;;;7.34;56.22;95500.44;4952164;28;20204;-65
2022/12/02 05:29:42;;;;;;;2.17;0.70;;;;;;;7.41;56.57;95503.75;4940943;28;20200;-68
2022/12/02 05:32:09;;;;;;;0.50;0.50;;;;;;;6.99;56.73;95500.25;4946924;28;20252;-64
2022/12/02 05:34:35;;;;;;;1.27;1.17;;;;;;;7.03;56.30;95506.63;4946446;29;20214;-64
2022/12/02 05:37:02;;;;;;;1.40;1.13;;;;;;;7.27;56.57;95517.16;4935847;28;20251;-66
2022/12/02 05:39:29;;;;;;;0.13;0.13;;;;;;;7.22;57.07;95516.00;4944775;29;20218;-67
2022/12/02 05:42:04;;;;;;;0.40;0.40;;;;;;;7.21;56.86;95512.84;4936612;28;20232;-66
2022/12/02 05:44:32;;;;;;;0.00;0.00;;;;;;;7.25;56.89;95520.00;4943690;29;20207;-64
2022/12/02 05:47:10;;;;;;;0.70;0.45;;;;;;;7.52;59.68;95523.09;4938996;28;20246;-64
2022/12/02 05:49:38;;;;;;;0.40;0.38;;;;;;;7.60;57.02;95522.75;4952048;28;20707;-63
2022/12/02 05:52:25;;;;;;;0.43;0.43;;;;;;;7.43;57.49;95521.78;4940435;28;20217;-65
2022/12/02 05:54:59;;;;;;;0.43;0.43;;;;;;;7.40;57.88;95523.03;4933060;29;20255;-66
2022/12/02 05:57:29;;;;;;;1.95;1.83;;;;;;;7.48;57.46;95532.38;4935270;29;20239;-64
2022/12/02 06:00:20;;;;;;;0.10;0.10;;;;;;;7.35;57.85;95535.13;4953124;28;20599;-64
2022/12/02 06:02:57;;;;;;;0.82;0.82;;;;;;;7.29;57.58;95523.78;4938715;28;20191;-61
2022/12/02 06:05:28;;;;;;;0.22;0.22;;;;;;;7.50;57.36;95536.31;4952724;28;20578;-65
2022/12/02 06:08:00;;;;;;;0.43;0.43;;;;;;;7.52;57.40;95530.91;4936134;28;20294;-69
2022/12/02 06:10:29;;;;;;;1.10;0.75;;;;;;;7.60;57.18;95538.41;4933443;29;20211;-66
2022/12/02 06:13:06;;;;;;;0.28;0.28;;;;;;;7.72;57.43;95549.69;4933207;29;20212;-67
2022/12/02 06:15:37;;;;;;;1.15;1.05;;;;;;;7.73;57.45;95553.88;4943531;28;20617;-70
2022/12/02 06:18:22;;;;;;;0.68;0.68;;;;;;;7.69;56.78;95550.13;4936873;28;20211;-70
2022/12/02 06:20:54;;;;;;;2.10;0.93;;;;;;;7.58;57.54;95556.09;4931780;29;20550;-69
2022/12/02 06:23:26;;;;;;;4.30;3.45;;;;;;;7.52;57.48;95562.19;4932676;29;20585;-66
2022/12/02 06:25:54;;;;;;;2.35;2.15;;;;;;;7.46;57.13;95563.88;4944303;29;20231;-66
2022/12/02 06:28:33;;;;;;;0.52;0.52;;;;;;;7.67;57.08;95559.97;4935505;28;20295;-68
2022/12/02 06:31:15;;;;;;;0.82;0.82;;;;;;;7.55;56.93;95567.78;4933414;29;20201;-66
2022/12/02 06:33:45;;;;;;;1.40;1.33;;;;;;;7.55;56.92;95546.09;4932313;29;20209;-64
2022/12/02 06:36:24;;;;;;;2.53;1.85;;;;;;;7.31;56.83;95560.84;4932972;29;20649;-67
2022/12/02 06:38:55;;;;;;;1.65;1.55;;;;;;;7.44;57.42;95565.09;4951272;28;20210;-65
2022/12/02 06:41:28;;;;;;;5.45;3.03;;;;;;;7.69;56.76;95563.16;4949385;28;20200;-67
2022/12/02 06:47:32;;;;;;;1.08;1.00;;;;;;;8.17;56.05;95561.28;4932048;29;20231;-68
2022/12/02 06:50:05;;;;;;;0.68;0.50;;;;;;;8.45;55.76;95558.84;4931550;28;20243;-66
2022/12/02 06:52:38;;;;;;;0.65;0.65;;;;;;;8.44;55.29;95562.50;4933424;28;20236;-65
2022/12/02 06:55:28;;;;;;;0.43;0.43;;;;;;;8.42;54.89;95559.31;4951539;28;20220;-68
2022/12/02 06:58:01;;;;;;;1.70;1.48;;;;;;;8.55;54.86;95571.34;4932114;29;20201;-67
2022/12/02 07:00:31;;;;;;;0.32;0.32;;;;;;;8.46;54.97;95567.50;4932375;29;20585;-64
2022/12/02 07:02:58;;;;;;;0.30;0.30;;;;;;;8.20;57.02;95560.84;4950006;29;20558;-65
2022/12/02 07:05:25;;;;;;;0.32;0.32;;;;;;;8.39;55.36;95572.81;4941333;28;20669;-63
2022/12/02 07:07:52;;;;;;;0.52;0.50;;;;;;;8.46;55.67;95573.50;4935347;29;20200;-64
2022/12/02 07:10:24;;;;;;;0.55;0.55;;;;;;;8.47;54.83;95569.88;4942884;28;20577;-64
2022/12/02 07:12:52;;;;;;;0.28;0.28;;;;;;;8.39;55.23;95569.41;4945743;29;20219;-68
2022/12/02 07:15:28;;;;;;;1.05;0.60;;;;;;;8.41;54.90;95573.38;4940500;28;20234;-66
2022/12/02 07:17:57;;;;;;;0.20;0.20;;;;;;;8.36;55.43;95569.88;4951678;28;20730;-67
2022/12/02 07:20:31;;;;;;;0.80;0.65;;;;;;;8.53;55.15;95571.59;4945974;28;20244;-65
2022/12/02 07:23:14;;;;;;;1.58;1.48;;;;;;;8.46;54.94;95567.50;4945951;28;20214;-65
2022/12/02 07:25:51;;;;;;;0.45;0.45;;;;;;;8.51;54.78;95568.41;4942249;28;20204;-67
2022/12/02 07:28:23;;;;;;;0.20;0.20;;;;;;;8.72;54.60;95575.69;4951542;28;20191;-68
2022/12/02 07:31:07;;;;;;;0.08;0.08;;;;;;;8.88;54.50;95580.25;4951577;28;20203;-68
2022/12/02 07:33:35;;;;;;;0.10;0.10;;;;;;;8.76;53.95;95571.59;4937356;28;20215;-67
2022/12/02 07:36:01;;;;;;;0.30;0.30;;;;;;;8.83;54.38;95566.28;4955226;28;20215;-66
2022/12/02 07:38:28;;;;;;;1.65;1.10;;;;;;;8.76;53.74;95565.56;4941628;28;20230;-64
2022/12/02 07:41:18;;;;;;;1.38;1.27;;;;;;;8.80;53.75;95567.50;4955341;28;20196;-67
2022/12/02 07:43:45;;;;;;;0.10;0.10;;;;;;;8.82;54.35;95568.06;4955260;28;20206;-67
2022/12/02 07:46:12;;;;;;;0.43;0.43;;;;;;;8.77;54.48;95573.19;4955830;28;20199;-65
2022/12/02 07:48:39;;;;;;;0.22;0.22;;;;;;;7.75;56.75;95593.59;4941183;28;20315;-65
2022/12/02 07:51:06;;;;;;;0.95;0.95;;;;;;;8.25;55.35;95584.47;4950358;28;20219;-65
2022/12/02 07:53:33;;;;;;;0.13;0.13;;;;;;;8.03;56.25;95585.97;4946621;29;20579;-65
2022/12/02 07:55:59;;;;;;;2.65;2.30;;;;;;;8.40;55.54;95587.47;4952025;28;20271;-66
2022/12/02 07:58:26;;;;;;;1.08;1.02;;;;;;;8.57;55.25;95588.41;4935770;29;20212;-67
2022/12/02 08:01:13;;;;;;;1.38;1.27;;;;;;;8.71;54.68;95597.59;4948997;29;20197;-66
2022/12/02 08:03:45;;;;;;;1.60;1.50;;;;;;;8.19;55.13;95590.56;4946341;28;20204;-66
2022/12/02 08:06:12;;;;;;;0.65;0.65;;;;;;;8.42;54.96;95601.09;4941314;28;20215;-67
2022/12/02 08:08:38;;;;;;;4.40;1.15;;;;;;;8.40;54.73;95597.91;4954417;28;20196;-67
2022/12/02 08:11:06;;;;;;;1.48;1.35;;;;;;;8.63;54.72;95597.16;4941283;28;20207;-66
2022/12/02 08:13:33;;;;;;;0.95;0.95;;;;;;;8.61;55.03;95599.97;4947128;28;20227;-66
2022/12/02 08:16:00;;;;;;;1.40;1.30;;;;;;;7.93;56.65;95607.41;4948909;29;20239;-67
2022/12/02 08:18:27;;;;;;;0.20;0.20;;;;;;;8.02;56.88;95603.47;4941080;28;20200;-65
2022/12/02 08:20:54;;;;;;;0.90;0.90;;;;;;;8.44;56.03;95604.28;4943054;28;20199;-67
2022/12/02 08:23:21;;;;;;;0.75;0.75;;;;;;;8.56;55.91;95602.47;4935714;29;20200;-67
2022/12/02 08:25:47;;;;;;;0.82;0.82;;;;;;;8.85;55.18;95593.75;4945590;29;20627;-66
2022/12/02 08:28:15;;;;;;;0.88;0.88;;;;;;;8.78;55.03;95593.06;4951943;28;20207;-67
2022/12/02 08:30:41;;;;;;;1.00;0.85;;;;;;;8.54;54.67;95599.28;4943612;29;20196;-67
2022/12/02 08:33:08;;;;;;;0.10;0.10;;;;;;;8.64;55.36;95601.34;4940093;28;20228;-66
2022/12/02 08:35:38;;;;;;;0.80;0.80;;;;;;;8.69;55.45;95604.88;4935339;29;20275;-67
2022/12/02 08:38:06;;;;;;;1.77;1.50;;;;;;;8.85;54.93;95609.41;4935314;29;20267;-67
2022/12/02 08:40:33;;;;;;;0.17;0.17;;;;;;;8.77;55.16;95608.97;4953784;29;20196;-66
2022/12/02 08:43:01;;;;;;;1.17;0.75;;;;;;;8.85;54.92;95606.81;4954383;29;20239;-66
2022/12/02 08:45:29;;;;;;;0.63;0.55;;;;;;;9.17;54.00;95610.69;4940526;28;20192;-66
2022/12/02 08:47:56;;;;;;;0.57;0.57;;;;;;;9.12;54.40;95613.16;4953991;28;20882;-66
2022/12/02 08:50:23;;;;;;;0.65;0.65;;;;;;;9.16;54.27;95609.06;4940526;29;20236;-65
2022/12/02 08:52:52;;;;;;;0.60;0.60;;;;;;;9.21;54.09;95617.03;4940602;28;20683;-66
2022/12/02 08:55:25;;;;;;;0.20;0.20;;;;;;;9.20;53.56;95620.69;4942540;28;20708;-65
2022/12/02 08:57:52;;;;;;;1.90;1.75;;;;;;;8.84;55.39;95626.13;4952436;29;20735;-66
2022/12/02 09:00:19;;;;;;;1.90;1.38;;;;;;;8.67;54.18;95625.19;4943935;28;20200;-68
2022/12/02 09:02:46;;;;;;;0.50;0.50;;;;;;;8.44;54.56;95617.34;4937280;29;20672;-67
2022/12/02 09:05:14;;;;;;;0.00;0.00;;;;;;;8.56;55.00;95612.91;4954041;28;20204;-67
2022/12/02 09:07:41;;;;;;;1.20;1.15;;;;;;;8.69;53.87;95615.31;4938761;28;20228;-65
2022/12/02 09:10:09;;;;;;;5.20;2.47;;;;;;;9.00;53.56;95611.59;4941475;29;20200;-64
2022/12/02 09:12:36;;;;;;;26.02;2.67;;;;;;;8.92;53.43;95601.50;4940293;28;20296;-65
2022/12/02 09:15:04;;;;;;;1.15;1.05;;;;;;;8.68;53.81;95610.34;4940183;28;20630;-66
2022/12/02 09:17:30;;;;;;;0.32;0.32;;;;;;;8.95;53.13;95611.47;4953681;28;20231;-65
2022/12/02 09:19:58;;;;;;;3.28;1.75;;;;;;;9.02;52.68;95612.97;4940185;28;20204;-66
2022/12/02 09:22:25;;;;;;;0.45;0.45;;;;;;;9.18;52.88;95612.25;4944358;28;20209;-67
2022/12/02 09:24:51;;;;;;;2.00;1.42;;;;;;;8.97;51.82;95599.78;4937705;29;20200;-67
2022/12/02 09:27:19;;;;;;;0.65;0.65;;;;;;;9.01;51.85;95600.13;4953631;28;20196;-66
2022/12/02 09:29:46;;;;;;;2.08;1.67;;;;;;;8.69;53.22;95597.03;4952052;28;20254;-67
2022/12/02 09:32:12;;;;;;;0.88;0.88;;;;;;;9.05;52.25;95602.03;4934338;29;20530;-66
2022/12/02 09:34:39;;;;;;;0.73;0.73;;;;;;;9.04;52.17;95600.47;4933650;29;20694;-66
2022/12/02 09:37:06;;;;;;;3.00;1.60;;;;;;;9.09;52.47;95603.19;4947283;29;20205;-67
2022/12/02 09:42:19;;;;;;;1.10;1.00;;;;;;;9.57;51.97;95589.00;4939629;28;20212;-67
2022/12/02 09:44:47;;;;;;;2.58;1.48;;;;;;;9.75;51.69;95599.28;4953204;28;20242;-66
2022/12/02 09:47:16;;;;;;;1.10;1.00;;;;;;;9.84;51.19;95596.06;4934744;28;20648;-66
2022/12/02 09:49:44;;;;;;;0.43;0.43;;;;;;;9.94;51.08;95590.25;4944261;29;20271;-67
2022/12/02 09:52:15;;;;;;;0.60;0.60;;;;;;;9.88;50.93;95585.94;4936041;28;20218;-65
2022/12/02 09:54:48;;;;;;;0.32;0.32;;;;;;;9.76;51.72;95593.03;4933438;28;20236;-64
2022/12/02 09:57:16;;;;;;;3.83;1.35;;;;;;;9.39;51.68;95589.16;4945766;28;20638;-67
2022/12/02 09:59:43;;;;;;;2.72;2.53;;;;;;;9.66;50.73;95582.38;4952895;28;20632;-66
2022/12/02 10:02:46;;;;;;;1.15;0.88;;;;;;;9.43;51.51;95587.66;4953142;28;20600;-68
2022/12/02 10:05:23;;;;;;;1.92;1.42;;;;;;;9.54;51.81;95586.84;4950494;29;20223;-65
2022/12/02 10:07:53;;;;;;;7.47;1.08;;;;;;;9.63;51.29;95588.88;4950320;28;20208;-66
2022/12/02 10:10:24;;;;;;;1.33;1.23;;;;;;;9.93;50.60;95583.41;4942436;29;20226;-65
2022/12/02 10:12:53;;;;;;;0.93;0.93;;;;;;;9.72;51.26;95589.28;4952715;28;20270;-66
2022/12/02 10:15:25;;;;;;;1.88;1.75;;;;;;;9.41;52.03;95579.25;4952846;28;20212;-64
2022/12/02 10:17:53;;;;;;;1.42;0.85;;;;;;;9.84;51.42;95572.53;4938802;28;20267;-67
2022/12/02 10:20:24;;;;;;;2.70;1.20;;;;;;;9.54;51.41;95573.78;4952459;28;20246;-65
2022/12/02 10:23:19;;;;;;;2.50;2.35;;;;;;;9.93;51.27;95570.31;4952571;28;20208;-66
2022/12/02 10:25:53;;;;;;;2.58;1.15;;;;;;;10.03;51.13;95565.28;4943081;28;20632;-67
2022/12/02 10:28:29;;;;;;;1.17;1.10;;;;;;;9.80;51.28;95578.44;4949731;29;20553;-65
2022/12/02 10:31:21;;;;;;;5.88;1.35;;;;;;;10.17;51.01;95574.44;4952995;28;20444;-65
2022/12/02 10:33:55;;;;;;;1.13;0.93;;;;;;;10.08;51.55;95570.59;4938587;28;20261;-64
2022/12/02 10:36:52;;;;;;;1.55;1.45;;;;;;;9.96;51.67;95575.09;4952136;28;20702;-65
2022/12/02 10:39:34;;;;;;;9.60;4.28;;;;;;;9.98;51.83;95575.66;4942817;28;20204;-65
2022/12/02 10:42:07;;;;;;;1.10;1.00;;;;;;;10.11;51.44;95564.91;4950553;29;20206;-65
2022/12/02 10:44:41;;;;;;;0.95;0.95;;;;;;;9.92;52.06;95566.91;4952326;28;20230;-65
2022/12/02 10:47:20;;;;;;;1.63;1.53;;;;;;;10.10;51.82;95563.31;4948334;28;20322;-67
2022/12/02 10:49:54;;;;;;;0.98;0.63;;;;;;;9.33;52.54;95566.53;4933189;29;20539;-66
2022/12/02 10:52:34;;;;;;;0.28;0.28;;;;;;;9.62;52.54;95560.31;4932871;29;20224;-66
2022/12/02 10:55:03;;;;;;;1.23;1.13;;;;;;;9.91;52.04;95564.50;4941471;28;20216;-66
2022/12/02 10:57:32;;;;;;;0.70;0.70;;;;;;;9.87;52.16;95563.41;4938169;28;20858;-65
2022/12/02 11:00:04;;;;;;;0.40;0.40;;;;;;;10.08;51.37;95560.91;4944523;28;20519;-65
2022/12/02 11:02:38;;;;;;;1.23;1.17;;;;;;;10.15;51.35;95558.16;4931059;29;20452;-66
2022/12/02 11:05:24;;;;;;;1.17;1.13;;;;;;;9.93;51.68;95559.84;4932858;29;20803;-66
2022/12/02 11:07:56;;;;;;;1.08;0.95;;;;;;;10.08;51.28;95565.34;4948926;28;20451;-65
2022/12/02 11:10:27;;;;;;;3.10;2.80;;;;;;;10.24;51.47;95569.84;4942490;28;20192;-66
2022/12/02 11:12:54;;;;;;;1.53;1.43;;;;;;;10.15;51.50;95566.03;4934970;29;20882;-66
2022/12/02 11:15:43;;;;;;;2.17;1.93;;;;;;;10.35;51.54;95574.22;4943685;28;20523;-65
2022/12/02 11:18:28;;;;;;;2.30;1.83;;;;;;;10.29;51.62;95567.34;4949652;29;20464;-67
2022/12/02 11:21:02;;;;;;;0.30;0.30;;;;;;;10.04;51.39;95574.69;4951727;28;20462;-66
2022/12/02 11:23:30;;;;;;;2.77;2.17;;;;;;;9.91;52.01;95574.97;4937741;28;20451;-66
2022/12/02 11:26:00;;;;;;;2.03;1.93;;;;;;;10.10;50.93;95576.41;4940950;28;20483;-66
2022/12/02 11:28:27;;;;;;;1.43;1.27;;;;;;;9.83;51.85;95583.22;4932758;29;20551;-67
2022/12/02 11:31:09;;;;;;;2.83;1.80;;;;;;;10.04;51.19;95590.41;4942569;29;20491;-67
2022/12/02 11:33:42;;;;;;;6.53;2.20;;;;;;;9.87;51.69;95579.13;4937486;28;20483;-65
2022/12/02 11:36:18;;;;;;;1.48;0.95;;;;;;;10.01;51.91;95580.41;4940749;28;20443;-67
2022/12/02 11:38:57;;;;;;;3.60;1.27;;;;;;;10.07;51.43;95576.88;4950535;28;20226;-67
2022/12/02 11:41:26;;;;;;;3.80;1.13;;;;;;;9.93;52.04;95578.16;4951880;28;20453;-68
2022/12/02 11:43:59;;;;;;;3.07;2.47;;;;;;;10.30;51.50;95584.63;4951420;28;21034;-67
2022/12/02 11:46:49;;;;;;;3.87;3.47;;;;;;;10.38;51.59;95581.63;4939866;28;20975;-66
2022/12/02 11:49:30;;;;;;;3.47;2.40;;;;;;;10.17;51.63;95579.69;4939535;29;20805;-67
2022/12/02 11:52:08;;;;;;;1.30;1.20;;;;;;;10.15;52.10;95581.75;4936345;28;20448;-64
2022/12/02 11:54:38;;;;;;;4.60;2.47;;;;;;;10.13;52.25;95583.78;4931825;29;20507;-66
2022/12/02 11:57:05;;;;;;;14.70;1.37;;;;;;;10.24;51.61;95580.31;4943625;28;20443;-66
2022/12/02 11:59:35;;;;;;;1.30;1.23;;;;;;;10.16;51.30;95572.88;4950758;28;20538;-67
2022/12/02 12:02:16;;;;;;;0.70;0.70;;;;;;;10.00;52.63;95576.19;4951543;28;20521;-66
2022/12/02 12:04:43;;;;;;;1.40;1.20;;;;;;;10.03;52.70;95584.41;4946115;28;20967;-66
2022/12/02 12:07:11;;;;;;;1.10;0.80;;;;;;;10.00;52.26;95578.81;4931951;29;20504;-68